Time;durP1;ratioP1;P1;durP2;ratioP2;P2;SDS_P1;SDS_P2;PMS_P1;PMS_P2;Temp;Humidity;BMP_temperature;BMP_pressure;BME280_temperature;BME280_humidity;BME280_pressure;Samples;Min_cycle;Max_cycle;Signal;HPM_P1;HPM_P2
2022/04/29 00:00:47;;;;;;;5.57;3.97;;;;;;;6.38;100.00;100036.06;5014431;28;20050;-78
2022/04/29 00:03:16;;;;;;;8.63;3.42;;;;;;;6.31;100.00;100037.59;5025742;28;20067;-78
2022/04/29 00:05:43;;;;;;;5.13;3.58;;;;;;;6.23;100.00;100037.41;5017247;28;20505;-78
2022/04/29 00:08:12;;;;;;;5.72;4.18;;;;;;;6.12;100.00;100040.19;5028042;28;20596;-78
2022/04/29 00:10:40;;;;;;;6.85;4.28;;;;;;;6.07;100.00;100046.00;5017299;28;20056;-78
2022/04/29 00:13:09;;;;;;;15.57;3.65;;;;;;;6.11;100.00;100023.16;5014146;28;20124;-78
2022/04/29 00:15:35;;;;;;;5.60;3.65;;;;;;;6.00;100.00;100017.84;5020355;28;20463;-78
2022/04/29 00:18:02;;;;;;;8.07;3.50;;;;;;;5.74;100.00;100023.63;5011424;28;21317;-78
2022/04/29 00:20:30;;;;;;;5.82;3.75;;;;;;;5.52;100.00;100026.47;5018815;28;20045;-78
2022/04/29 00:22:56;;;;;;;5.07;3.65;;;;;;;5.47;100.00;100022.31;5022241;28;20050;-78
2022/04/29 00:25:23;;;;;;;7.05;3.88;;;;;;;5.57;100.00;100026.91;5019743;28;20056;-78
2022/04/29 00:27:50;;;;;;;5.20;3.97;;;;;;;5.52;100.00;100030.00;5017670;28;20085;-78
2022/04/29 00:30:16;;;;;;;7.00;4.25;;;;;;;5.64;100.00;100025.41;5017964;28;20521;-78
2022/04/29 00:32:43;;;;;;;5.22;4.28;;;;;;;5.78;100.00;100038.56;5019513;28;20052;-78
2022/04/29 00:35:10;;;;;;;4.60;3.47;;;;;;;5.73;100.00;100031.84;5018557;28;20056;-78
2022/04/29 00:37:45;;;;;;;7.47;4.30;;;;;;;5.82;100.00;100042.69;5024466;28;20072;-78
2022/04/29 00:40:18;;;;;;;7.88;4.40;;;;;;;5.55;100.00;100026.19;5022614;28;20072;-78
2022/04/29 00:42:45;;;;;;;9.73;4.75;;;;;;;5.54;100.00;100027.19;5018933;28;20068;-78
2022/04/29 00:45:13;;;;;;;6.32;4.25;;;;;;;5.47;100.00;100035.81;5017119;28;20052;-78
2022/04/29 00:47:39;;;;;;;6.07;3.97;;;;;;;5.25;100.00;100003.56;5011894;28;20050;-78
2022/04/29 00:50:07;;;;;;;6.88;4.25;;;;;;;5.34;100.00;100013.56;5022905;28;20053;-78
2022/04/29 00:52:36;;;;;;;7.82;4.28;;;;;;;5.22;100.00;99990.34;5023270;28;20053;-78
2022/04/29 00:55:08;;;;;;;6.77;4.27;;;;;;;5.37;100.00;100017.84;5019172;28;20053;-78
2022/04/29 00:57:41;;;;;;;4.82;4.32;;;;;;;5.40;100.00;100013.03;5020389;28;20312;-78
2022/04/29 01:00:09;;;;;;;5.10;4.60;;;;;;;5.25;100.00;100006.25;5024827;28;20054;-78
2022/04/29 01:02:39;;;;;;;8.10;4.80;;;;;;;5.23;100.00;100008.22;5023347;28;20069;-78
2022/04/29 01:05:07;;;;;;;5.13;4.18;;;;;;;5.08;100.00;100000.44;5016869;28;20103;-78
2022/04/29 01:07:35;;;;;;;6.50;4.45;;;;;;;5.57;100.00;100033.19;5019025;28;20451;-78
2022/04/29 01:10:04;;;;;;;7.15;4.30;;;;;;;5.40;100.00;100012.19;5016418;28;20054;-79
2022/04/29 01:12:35;;;;;;;8.10;4.80;;;;;;;5.24;100.00;100000.00;5013578;28;20068;-78
2022/04/29 01:15:09;;;;;;;6.90;4.32;;;;;;;5.45;100.00;100018.03;5016259;28;20060;-78
2022/04/29 01:17:36;;;;;;;6.97;5.32;;;;;;;5.03;100.00;99978.44;5023421;28;20059;-78
2022/04/29 01:20:04;;;;;;;6.22;4.57;;;;;;;5.20;100.00;100011.19;5017918;28;20057;-78
2022/04/29 01:22:33;;;;;;;7.45;4.97;;;;;;;4.94;100.00;99984.59;5016823;28;20528;-78
2022/04/29 01:25:00;;;;;;;7.20;4.90;;;;;;;5.03;100.00;99969.47;5024386;28;20053;-78
2022/04/29 01:27:26;;;;;;;5.22;4.30;;;;;;;5.21;100.00;99975.13;5018465;28;20053;-78
2022/04/29 01:29:59;;;;;;;8.18;4.15;;;;;;;5.16;100.00;99963.91;5020917;28;21422;-78
2022/04/29 01:32:26;;;;;;;6.30;4.38;;;;;;;5.17;100.00;99981.81;5026680;28;20081;-78
2022/04/29 01:34:53;;;;;;;5.63;4.30;;;;;;;5.04;100.00;99992.75;5031368;28;20049;-78
2022/04/29 01:37:19;;;;;;;5.00;3.92;;;;;;;4.86;100.00;99971.75;5027085;28;20512;-78
2022/04/29 01:39:47;;;;;;;6.55;4.28;;;;;;;4.89;100.00;99973.34;5026851;28;20060;-78
2022/04/29 01:42:13;;;;;;;7.43;4.60;;;;;;;4.96;100.00;99994.25;5027785;28;20060;-78
2022/04/29 01:44:40;;;;;;;5.78;4.10;;;;;;;4.83;100.00;99968.47;5028125;28;20107;-78
2022/04/29 01:47:07;;;;;;;5.53;4.10;;;;;;;4.80;100.00;99993.81;5027248;28;20054;-78
2022/04/29 01:49:33;;;;;;;5.10;4.22;;;;;;;4.86;100.00;99992.44;5024944;28;20383;-78
2022/04/29 01:52:00;;;;;;;8.23;4.75;;;;;;;4.69;100.00;99975.00;5028610;28;20049;-78
2022/04/29 01:54:27;;;;;;;5.82;4.65;;;;;;;4.83;100.00;100000.78;5029048;28;20053;-78
2022/04/29 01:56:54;;;;;;;10.55;4.45;;;;;;;4.76;100.00;99973.50;5029676;28;20090;-78
2022/04/29 01:59:21;;;;;;;8.13;5.05;;;;;;;4.74;100.00;99984.41;5028355;28;20273;-78
2022/04/29 02:01:48;;;;;;;8.73;4.53;;;;;;;4.82;100.00;99978.38;5015148;28;20545;-78
2022/04/29 02:04:15;;;;;;;7.63;4.75;;;;;;;4.92;100.00;100010.78;5028711;28;20478;-78
2022/04/29 02:06:42;;;;;;;7.45;5.15;;;;;;;4.71;100.00;99997.28;5028079;28;20038;-78
2022/04/29 02:09:09;;;;;;;5.63;4.65;;;;;;;4.84;100.00;100006.03;5021202;28;20053;-78
2022/04/29 02:11:35;;;;;;;6.30;4.63;;;;;;;4.82;100.00;100009.84;5021593;28;20050;-78
2022/04/29 02:14:03;;;;;;;5.38;4.88;;;;;;;4.61;100.00;99987.25;5027310;28;20045;-78
2022/04/29 02:16:30;;;;;;;6.30;4.72;;;;;;;4.56;100.00;99981.41;5021777;28;20045;-78
2022/04/29 02:18:56;;;;;;;6.18;4.60;;;;;;;4.32;100.00;99968.13;5024827;28;20038;-78
2022/04/29 02:21:23;;;;;;;6.68;4.65;;;;;;;4.38;100.00;99969.44;5018475;28;20046;-78
2022/04/29 02:23:49;;;;;;;7.22;4.65;;;;;;;4.38;100.00;99947.91;5022287;28;20045;-78
2022/04/29 02:26:16;;;;;;;6.28;4.70;;;;;;;4.44;100.00;99974.31;5023468;28;20066;-78
2022/04/29 02:28:42;;;;;;;5.00;4.10;;;;;;;4.54;100.00;99980.66;5028787;28;20042;-78
2022/04/29 02:31:10;;;;;;;5.93;4.40;;;;;;;4.52;100.00;99989.88;5023196;28;20057;-78
2022/04/29 02:33:37;;;;;;;9.70;4.70;;;;;;;4.28;100.00;99958.56;5032105;28;20049;-78
2022/04/29 02:36:05;;;;;;;8.15;5.18;;;;;;;4.59;100.00;99980.28;5022844;28;20059;-78
2022/04/29 02:38:32;;;;;;;6.38;4.65;;;;;;;4.46;100.00;99975.06;5030872;28;20080;-78
2022/04/29 02:40:58;;;;;;;9.68;5.10;;;;;;;4.61;100.00;99983.72;5026862;28;20043;-78
2022/04/29 02:43:25;;;;;;;8.25;5.88;;;;;;;4.47;100.00;99965.13;5031260;28;20068;-78
2022/04/29 02:45:53;;;;;;;11.85;5.40;;;;;;;4.42;100.00;99947.50;5030489;28;20056;-78
2022/04/29 02:48:20;;;;;;;6.65;4.70;;;;;;;4.57;100.00;99974.19;5032699;28;20084;-78
2022/04/29 02:50:47;;;;;;;5.78;4.38;;;;;;;4.39;100.00;99946.94;5025960;28;20053;-78
2022/04/29 02:53:14;;;;;;;7.85;4.93;;;;;;;4.49;100.00;99977.50;5019015;28;20049;-78
2022/04/29 02:55:40;;;;;;;9.40;4.85;;;;;;;4.48;100.00;99981.16;5029562;28;20056;-78
2022/04/29 02:58:07;;;;;;;6.68;4.97;;;;;;;4.22;100.00;99956.38;5032603;28;20072;-78
2022/04/29 03:00:34;;;;;;;6.78;5.10;;;;;;;4.16;100.00;99970.34;5029453;28;20060;-78
2022/04/29 03:03:00;;;;;;;6.70;4.70;;;;;;;4.16;100.00;99962.28;5030860;28;20054;-78
2022/04/29 03:05:28;;;;;;;9.18;5.40;;;;;;;4.05;100.00;99950.53;5028963;28;20050;-78
2022/04/29 03:07:55;;;;;;;6.38;4.85;;;;;;;4.05;100.00;99960.41;5029396;28;20409;-78
2022/04/29 03:10:21;;;;;;;6.88;5.07;;;;;;;3.95;100.00;99967.53;5023901;28;20060;-78
2022/04/29 03:12:48;;;;;;;5.78;4.20;;;;;;;3.90;100.00;99968.75;5029030;28;20085;-78
2022/04/29 03:15:17;;;;;;;7.90;5.50;;;;;;;4.08;100.00;99979.88;5031592;28;20045;-78
2022/04/29 03:20:30;;;;;;;7.75;5.45;;;;;;;4.04;100.00;99939.91;5029879;28;20319;-78
2022/04/29 03:22:56;;;;;;;6.90;5.03;;;;;;;4.11;100.00;99959.94;5030233;28;20099;-78
2022/04/29 03:25:23;;;;;;;8.18;5.20;;;;;;;4.01;100.00;99949.06;5031939;28;20057;-78
2022/04/29 03:27:49;;;;;;;6.78;5.28;;;;;;;4.28;100.00;99980.13;5020637;28;20057;-77
2022/04/29 03:30:16;;;;;;;11.85;5.65;;;;;;;3.97;100.00;99930.59;5029729;28;20050;-78
2022/04/29 03:32:51;;;;;;;5.00;4.45;;;;;;;3.92;100.00;99930.13;5029663;28;20384;-78
2022/04/29 03:35:18;;;;;;;7.53;5.25;;;;;;;4.05;100.00;99947.84;5028625;28;20485;-78
2022/04/29 03:37:45;;;;;;;5.43;4.60;;;;;;;3.97;100.00;99919.84;5028891;28;20050;-78
2022/04/29 03:40:13;;;;;;;6.45;4.78;;;;;;;3.86;100.00;99939.53;5029402;28;20493;-78
2022/04/29 03:42:40;;;;;;;7.38;5.25;;;;;;;3.86;100.00;99929.63;5024869;28;20717;-78
2022/04/29 03:45:08;;;;;;;5.95;4.72;;;;;;;3.84;100.00;99918.16;5023633;28;20061;-78
2022/04/29 03:47:34;;;;;;;6.72;4.80;;;;;;;3.94;100.00;99938.91;5025061;28;20050;-78
2022/04/29 03:50:01;;;;;;;5.57;4.70;;;;;;;3.95;100.00;99940.66;5031805;28;20053;-78
2022/04/29 03:52:28;;;;;;;7.43;5.47;;;;;;;3.87;100.00;99925.97;5028271;28;20133;-78
2022/04/29 03:54:57;;;;;;;7.50;4.60;;;;;;;3.87;100.00;99925.13;5029892;28;20053;-78
2022/04/29 03:57:23;;;;;;;5.68;4.68;;;;;;;3.90;100.00;99949.94;5028501;28;20049;-78
2022/04/29 03:59:50;;;;;;;7.18;4.85;;;;;;;3.88;100.00;99927.69;5021731;28;20044;-78
2022/04/29 04:02:16;;;;;;;12.30;5.68;;;;;;;3.98;100.00;99960.06;5030837;28;20418;-78
2022/04/29 04:04:43;;;;;;;6.45;4.90;;;;;;;3.78;100.00;99955.41;5023428;28;20049;-78
2022/04/29 04:07:10;;;;;;;7.53;5.78;;;;;;;3.73;100.00;99945.03;5031256;28;20053;-78
2022/04/29 04:09:36;;;;;;;8.80;5.28;;;;;;;3.94;100.00;99953.22;5028451;28;20503;-78
2022/04/29 04:12:05;;;;;;;6.50;4.75;;;;;;;3.95;100.00;99943.34;5030030;28;20053;-78
2022/04/29 04:14:31;;;;;;;8.48;4.28;;;;;;;3.83;100.00;99948.69;5027183;28;20486;-78
2022/04/29 04:16:58;;;;;;;6.72;5.00;;;;;;;3.77;100.00;99929.53;5027468;28;20053;-78
2022/04/29 04:19:24;;;;;;;5.63;4.90;;;;;;;3.80;100.00;99946.25;5025260;28;20105;-78
2022/04/29 04:21:51;;;;;;;6.78;4.93;;;;;;;3.94;100.00;99963.97;5030791;28;20053;-78
2022/04/29 04:24:18;;;;;;;7.55;4.60;;;;;;;3.92;100.00;99957.03;5027089;28;20501;-78
2022/04/29 04:26:44;;;;;;;7.13;4.97;;;;;;;4.01;100.00;99967.06;5025247;28;20061;-78
2022/04/29 04:29:12;;;;;;;7.03;5.05;;;;;;;3.78;100.00;99932.09;5030723;28;20072;-78
2022/04/29 04:31:38;;;;;;;8.10;4.57;;;;;;;4.09;100.00;99969.97;5029478;28;20053;-78
2022/04/29 04:36:52;;;;;;;5.43;4.65;;;;;;;4.13;100.00;99967.91;5027337;28;20054;-78
2022/04/29 04:39:19;;;;;;;7.50;4.80;;;;;;;4.18;100.00;99969.22;5028429;28;20049;-78
2022/04/29 04:41:46;;;;;;;5.22;4.55;;;;;;;4.08;100.00;99949.44;5029152;28;20072;-78
2022/04/29 04:44:13;;;;;;;6.88;4.75;;;;;;;4.06;100.00;99963.03;5029347;28;20052;-78
2022/04/29 04:46:40;;;;;;;6.35;4.97;;;;;;;4.30;100.00;99986.22;5030525;28;20046;-78
2022/04/29 04:49:07;;;;;;;5.53;4.53;;;;;;;4.31;100.00;99963.72;5024734;28;20060;-78
2022/04/29 04:51:33;;;;;;;10.88;5.30;;;;;;;4.29;100.00;99965.69;5026856;28;20441;-78
2022/04/29 04:54:00;;;;;;;7.95;5.25;;;;;;;4.23;100.00;99964.34;5030032;28;20099;-78
2022/04/29 04:56:27;;;;;;;11.40;5.63;;;;;;;4.43;100.00;99978.84;5022881;28;20053;-78
2022/04/29 04:58:54;;;;;;;8.60;4.47;;;;;;;4.47;100.00;99992.06;5027331;28;20046;-78
2022/04/29 05:01:22;;;;;;;6.15;4.72;;;;;;;4.43;100.00;99986.94;5018910;28;20049;-78
2022/04/29 05:03:48;;;;;;;6.10;4.57;;;;;;;4.50;100.00;99992.69;5029629;28;20049;-78
2022/04/29 05:06:15;;;;;;;9.52;4.93;;;;;;;4.64;100.00;99994.25;5032073;28;20057;-78
2022/04/29 05:08:41;;;;;;;6.80;5.05;;;;;;;4.57;100.00;99966.94;5028363;28;20129;-78
2022/04/29 05:11:08;;;;;;;7.50;4.82;;;;;;;4.59;100.00;99954.22;5023403;28;20069;-78
2022/04/29 05:13:34;;;;;;;9.02;5.30;;;;;;;4.82;100.00;99978.38;5030391;28;20049;-78
2022/04/29 05:16:01;;;;;;;6.68;4.80;;;;;;;4.92;100.00;99998.19;5022460;28;20041;-78
2022/04/29 05:18:32;;;;;;;9.48;5.20;;;;;;;4.67;100.00;99969.75;5025562;28;20050;-78
2022/04/29 05:21:01;;;;;;;8.77;5.15;;;;;;;4.73;100.00;99966.53;5025867;28;20740;-78
2022/04/29 05:23:27;;;;;;;5.32;4.25;;;;;;;5.08;100.00;100010.38;5030552;28;20075;-78
2022/04/29 05:25:54;;;;;;;7.40;5.40;;;;;;;4.95;100.00;99973.69;5026801;28;20104;-78
2022/04/29 05:28:21;;;;;;;6.78;4.93;;;;;;;5.10;100.00;99994.91;5021750;28;20482;-78
2022/04/29 05:30:48;;;;;;;7.30;4.70;;;;;;;5.14;100.00;99978.34;5027655;28;20050;-78
2022/04/29 05:33:15;;;;;;;8.27;5.95;;;;;;;5.43;100.00;100012.75;5020806;28;20053;-78
2022/04/29 05:35:43;;;;;;;8.27;4.90;;;;;;;5.59;100.00;99998.00;5028591;28;20512;-78
2022/04/29 05:38:10;;;;;;;6.55;4.85;;;;;;;5.59;100.00;99985.34;5020910;28;20394;-78
2022/04/29 05:43:21;;;;;;;6.28;4.57;;;;;;;5.80;100.00;99982.63;5022424;28;20099;-78
2022/04/29 05:45:48;;;;;;;6.43;4.95;;;;;;;6.06;100.00;99975.97;5026667;28;20047;-78
2022/04/29 05:48:14;;;;;;;6.55;5.15;;;;;;;6.23;100.00;99983.38;5016499;28;20497;-78
2022/04/29 05:50:42;;;;;;;9.05;5.47;;;;;;;6.51;100.00;100025.00;5019615;28;20057;-78
2022/04/29 05:53:09;;;;;;;6.35;4.45;;;;;;;6.37;100.00;99983.03;5025308;28;20057;-78
2022/04/29 05:55:35;;;;;;;6.63;4.30;;;;;;;6.59;100.00;100013.50;5025326;28;20054;-78
2022/04/29 05:58:04;;;;;;;6.18;4.68;;;;;;;6.57;100.00;99988.47;5027791;28;20075;-78
2022/04/29 06:00:30;;;;;;;5.97;4.50;;;;;;;6.96;100.00;100010.16;5022862;28;20107;-78
2022/04/29 06:02:57;;;;;;;7.25;5.18;;;;;;;7.24;100.00;100010.28;5029193;28;20132;-78
2022/04/29 06:05:24;;;;;;;5.93;4.40;;;;;;;7.38;100.00;99988.22;5026147;28;20045;-78
2022/04/29 06:07:52;;;;;;;6.45;4.45;;;;;;;7.61;100.00;100010.41;5033053;28;20053;-78
2022/04/29 06:10:19;;;;;;;6.25;4.75;;;;;;;7.97;100.00;99997.06;5021373;28;20065;-78
2022/04/29 06:12:46;;;;;;;8.38;5.15;;;;;;;8.14;99.67;99975.63;5026121;28;20045;-78
2022/04/29 06:15:14;;;;;;;7.18;5.22;;;;;;;8.47;95.62;99987.75;5027934;28;20072;-78
2022/04/29 06:17:41;;;;;;;8.00;5.20;;;;;;;8.93;91.29;99998.59;5017765;28;20393;-78
2022/04/29 06:20:09;;;;;;;13.30;5.45;;;;;;;9.50;85.79;99994.69;5029295;28;20049;-78
2022/04/29 06:22:43;;;;;;;6.50;5.28;;;;;;;9.86;83.72;99976.47;5034513;28;20050;-78
2022/04/29 06:25:11;;;;;;;7.18;5.07;;;;;;;10.61;80.48;99989.41;5032296;28;20058;-76
2022/04/29 06:27:37;;;;;;;6.50;4.63;;;;;;;11.27;78.74;100005.00;5031453;28;20049;-75
2022/04/29 06:30:05;;;;;;;5.97;4.88;;;;;;;11.59;76.65;99970.63;5035555;28;20041;-78
2022/04/29 06:32:31;;;;;;;5.38;4.28;;;;;;;10.70;76.92;99982.09;5032194;28;20046;-77
2022/04/29 06:34:58;;;;;;;6.22;4.18;;;;;;;11.27;76.09;100014.00;5033498;28;20050;-78
2022/04/29 06:37:24;;;;;;;10.80;6.13;;;;;;;11.26;74.79;99997.84;5025159;28;20049;-76
2022/04/29 06:39:51;;;;;;;8.50;6.00;;;;;;;11.58;73.55;99974.38;5029127;28;20042;-76
2022/04/29 06:42:19;;;;;;;8.52;5.30;;;;;;;11.50;71.87;99969.75;5031434;28;20065;-75
2022/04/29 06:44:45;;;;;;;9.20;5.15;;;;;;;11.44;74.40;99984.94;5033837;28;20049;-76
2022/04/29 06:47:12;;;;;;;7.70;5.05;;;;;;;11.24;74.74;99994.44;5033695;28;20054;-76
2022/04/29 06:49:38;;;;;;;8.55;5.28;;;;;;;11.05;74.05;99990.16;5033387;28;20045;-76
2022/04/29 06:52:05;;;;;;;11.38;5.22;;;;;;;11.59;72.13;100000.56;5033338;28;20049;-76
2022/04/29 06:54:32;;;;;;;9.40;5.50;;;;;;;11.67;72.17;99984.25;5031489;28;20493;-76
2022/04/29 06:56:58;;;;;;;10.23;4.55;;;;;;;11.62;76.48;99986.59;5032555;28;20045;-77
2022/04/29 06:59:26;;;;;;;9.75;5.63;;;;;;;11.45;78.64;99989.34;5027516;28;20073;-77
2022/04/29 07:01:53;;;;;;;7.88;5.53;;;;;;;11.48;80.27;100005.34;5033532;28;20098;-77
2022/04/29 07:04:20;;;;;;;10.40;6.35;;;;;;;11.44;78.82;99974.03;5030385;28;20048;-77
2022/04/29 07:06:46;;;;;;;6.45;5.25;;;;;;;11.73;78.41;99966.34;5033048;28;20053;-77
2022/04/29 07:09:12;;;;;;;11.48;5.95;;;;;;;12.10;74.86;99960.31;5033234;28;20048;-77
2022/04/29 07:11:39;;;;;;;7.80;5.97;;;;;;;12.41;74.42;99972.31;5031887;28;20053;-77
2022/04/29 07:14:08;;;;;;;12.55;6.03;;;;;;;12.46;74.22;99976.19;5031856;28;20045;-77
2022/04/29 07:16:35;;;;;;;13.07;6.35;;;;;;;12.66;72.15;99954.81;5033393;28;20053;-77
2022/04/29 07:19:03;;;;;;;11.15;5.95;;;;;;;12.64;70.48;99951.38;5029265;28;20053;-77
2022/04/29 07:21:30;;;;;;;8.30;5.03;;;;;;;12.83;70.37;99952.81;5017907;28;20123;-77
2022/04/29 07:23:56;;;;;;;9.60;6.35;;;;;;;13.15;66.75;99955.50;5023924;28;20049;-77
2022/04/29 07:26:23;;;;;;;7.72;6.25;;;;;;;13.16;64.57;99949.88;5032223;28;20073;-77
2022/04/29 07:28:50;;;;;;;8.18;5.60;;;;;;;13.47;64.88;99954.41;5023489;28;20050;-77
2022/04/29 07:31:16;;;;;;;8.13;5.55;;;;;;;13.56;65.26;99972.41;5030698;28;20054;-77
2022/04/29 07:33:44;;;;;;;11.35;5.80;;;;;;;13.64;64.78;99971.50;5029335;28;20128;-77
2022/04/29 07:41:47;;;;;;;9.10;5.07;;;;;;;13.83;65.81;99972.84;5014704;28;20056;-77
2022/04/29 07:44:14;;;;;;;8.50;4.95;;;;;;;13.94;65.20;99964.19;5031419;28;20046;-77
2022/04/29 07:46:43;;;;;;;7.00;5.30;;;;;;;13.87;65.40;99933.19;5032511;28;20057;-78
2022/04/29 07:49:11;;;;;;;14.30;6.07;;;;;;;14.05;65.18;99975.72;5030007;28;20049;-77
2022/04/29 07:51:38;;;;;;;8.65;5.38;;;;;;;13.64;66.17;99936.00;5030174;28;20064;-77
2022/04/29 07:54:04;;;;;;;10.73;5.00;;;;;;;13.80;66.94;99956.81;5031483;28;20049;-78
2022/04/29 07:56:31;;;;;;;9.38;4.95;;;;;;;13.88;66.22;99955.88;5031480;28;20141;-78
2022/04/29 07:58:58;;;;;;;7.90;5.10;;;;;;;13.80;66.27;99965.03;5032006;28;20060;-77
2022/04/29 08:01:25;;;;;;;8.70;4.88;;;;;;;13.71;68.04;99928.72;5031537;28;20046;-78
2022/04/29 08:03:52;;;;;;;10.13;6.55;;;;;;;13.68;68.38;99964.63;5024620;28;20049;-78
2022/04/29 08:06:21;;;;;;;9.10;5.90;;;;;;;13.65;67.92;99955.97;5019314;28;20516;-77
2022/04/29 08:08:47;;;;;;;10.30;4.95;;;;;;;13.48;68.19;99961.56;5031494;28;20067;-77
2022/04/29 08:11:16;;;;;;;6.82;4.80;;;;;;;12.85;70.67;99937.09;5031329;28;20052;-77
2022/04/29 08:13:44;;;;;;;7.20;5.70;;;;;;;12.98;70.96;99932.94;5030644;28;20051;-78
2022/04/29 08:16:11;;;;;;;7.68;4.70;;;;;;;13.06;69.76;99941.06;5031704;28;20049;-78
2022/04/29 08:18:38;;;;;;;7.13;5.38;;;;;;;13.42;68.69;99971.34;5027362;28;20050;-78
2022/04/29 08:21:05;;;;;;;11.98;5.07;;;;;;;13.44;69.81;99968.44;5031080;28;20055;-78
2022/04/29 08:23:33;;;;;;;16.65;6.05;;;;;;;13.40;68.79;99937.06;5026717;28;20424;-78
2022/04/29 08:25:59;;;;;;;9.65;5.53;;;;;;;13.63;67.33;99948.78;5027483;28;20487;-78
2022/04/29 08:28:28;;;;;;;9.82;6.30;;;;;;;13.76;67.37;99963.69;5030258;28;20489;-77
2022/04/29 08:30:54;;;;;;;8.88;5.63;;;;;;;13.89;67.60;99963.06;5030804;28;20048;-77
2022/04/29 08:33:21;;;;;;;10.68;5.65;;;;;;;14.16;69.01;99940.53;5027991;28;20045;-78
2022/04/29 08:35:48;;;;;;;13.52;5.90;;;;;;;14.24;65.94;99936.00;5031239;28;20056;-77
2022/04/29 08:38:16;;;;;;;13.93;5.65;;;;;;;14.50;65.64;99965.59;5024240;28;20056;-78
2022/04/29 08:40:46;;;;;;;7.22;5.18;;;;;;;14.34;64.70;99940.13;5030852;28;20087;-78
2022/04/29 08:43:13;;;;;;;11.70;5.30;;;;;;;14.71;64.56;99955.75;5030415;28;20128;-78
2022/04/29 08:45:41;;;;;;;9.98;6.05;;;;;;;14.89;63.98;99930.69;5030992;28;20544;-78
2022/04/29 08:48:08;;;;;;;10.10;5.20;;;;;;;15.20;61.78;99955.91;5030254;28;20061;-78
2022/04/29 08:50:35;;;;;;;7.82;6.10;;;;;;;15.15;64.21;99947.41;5030510;28;20045;-78
2022/04/29 08:53:02;;;;;;;10.60;5.68;;;;;;;15.40;62.01;99953.34;5030053;28;20047;-78
2022/04/29 09:01:08;;;;;;;10.45;6.28;;;;;;;15.92;62.86;99943.00;5021725;28;20042;-78
2022/04/29 09:03:35;;;;;;;8.38;5.55;;;;;;;16.02;63.89;99917.13;5026422;28;20566;-78
2022/04/29 09:06:02;;;;;;;26.77;6.90;;;;;;;15.56;61.33;99902.84;5028989;28;20064;-78
2022/04/29 09:08:33;;;;;;;10.45;6.00;;;;;;;15.93;60.48;99924.66;5029936;28;20136;-78
2022/04/29 09:11:01;;;;;;;10.65;6.85;;;;;;;16.05;60.91;99914.81;5030537;28;20041;-78
2022/04/29 09:13:30;;;;;;;6.10;5.45;;;;;;;15.95;60.48;99894.31;5029882;28;20063;-79
2022/04/29 09:15:59;;;;;;;15.47;6.00;;;;;;;15.97;58.88;99895.78;5022589;28;20046;-78
2022/04/29 09:18:33;;;;;;;9.93;5.70;;;;;;;16.23;59.41;99894.25;5029399;28;20053;-78
2022/04/29 09:21:02;;;;;;;6.90;4.95;;;;;;;16.73;55.85;99914.03;5030725;28;20045;-78
2022/04/29 09:23:29;;;;;;;10.85;5.40;;;;;;;16.87;54.90;99884.72;5028195;28;20049;-78
2022/04/29 09:25:58;;;;;;;8.40;5.75;;;;;;;16.98;57.76;99900.63;5030621;28;20045;-78
2022/04/29 09:28:25;;;;;;;9.80;5.38;;;;;;;17.08;55.44;99904.84;5030451;28;20477;-78
2022/04/29 09:30:56;;;;;;;8.98;5.10;;;;;;;17.25;52.18;99897.91;5030129;28;20054;-78
2022/04/29 09:33:25;;;;;;;10.93;4.50;;;;;;;17.49;51.88;99879.91;5027531;28;20045;-78
2022/04/29 09:35:52;;;;;;;9.55;4.55;;;;;;;17.75;49.01;99874.56;5030431;28;20084;-78
2022/04/29 09:41:04;;;;;;;12.60;5.07;;;;;;;17.87;51.49;99873.72;5028555;28;20563;-78
2022/04/29 09:43:36;;;;;;;12.45;5.82;;;;;;;18.22;52.91;99873.41;5029158;28;20416;-78
2022/04/29 09:46:15;;;;;;;10.55;5.10;;;;;;;17.92;51.98;99864.00;5029811;28;20061;-78
2022/04/29 09:49:00;;;;;;;7.32;4.22;;;;;;;18.32;51.93;99861.09;5030014;28;20144;-78
2022/04/29 09:51:46;;;;;;;11.68;4.05;;;;;;;18.46;47.72;99848.13;5030176;28;20042;-79
2022/04/29 09:54:18;;;;;;;4.88;3.70;;;;;;;18.72;49.48;99881.00;5024959;28;20049;-78
2022/04/29 09:56:46;;;;;;;7.00;3.30;;;;;;;18.45;42.63;99846.44;5026858;28;20075;-79
2022/04/29 09:59:13;;;;;;;13.60;3.70;;;;;;;18.58;43.71;99862.88;5030116;28;20053;-78
2022/04/29 10:01:42;;;;;;;5.00;3.33;;;;;;;18.48;48.36;99868.84;5030289;28;20050;-79
2022/04/29 10:04:11;;;;;;;4.03;2.67;;;;;;;18.47;42.49;99872.69;5020987;28;20091;-78
2022/04/29 10:06:40;;;;;;;3.78;2.67;;;;;;;18.03;41.14;99844.91;5029989;28;20057;-78
2022/04/29 10:09:10;;;;;;;6.10;2.38;;;;;;;17.88;39.49;99869.03;5029767;28;20081;-78
2022/04/29 10:11:39;;;;;;;5.20;2.58;;;;;;;17.87;39.28;99848.13;5029216;28;20047;-79
2022/04/29 10:14:08;;;;;;;3.63;2.58;;;;;;;18.13;40.35;99854.63;5026066;28;20064;-79
2022/04/29 10:16:36;;;;;;;7.28;2.65;;;;;;;18.13;40.59;99860.97;5029723;28;20156;-78
2022/04/29 10:21:51;;;;;;;3.88;2.72;;;;;;;18.22;41.56;99856.06;5025135;28;20882;-79
2022/04/29 10:24:18;;;;;;;4.50;2.40;;;;;;;18.36;40.47;99832.06;5029178;28;20053;-79
2022/04/29 10:26:46;;;;;;;3.40;2.63;;;;;;;18.45;40.70;99833.50;5028628;28;20071;-78
2022/04/29 10:29:13;;;;;;;4.15;2.60;;;;;;;18.53;36.49;99825.00;5028421;28;20459;-78
2022/04/29 10:31:39;;;;;;;2.83;2.22;;;;;;;18.72;38.18;99823.16;5024338;28;20053;-78
2022/04/29 10:34:29;;;;;;;6.07;2.10;;;;;;;18.97;37.12;99818.78;5028956;28;20056;-78
2022/04/29 10:36:56;;;;;;;4.50;2.15;;;;;;;19.33;39.00;99836.50;5024587;28;20045;-79
2022/04/29 10:39:23;;;;;;;3.58;2.42;;;;;;;18.72;37.69;99817.66;5030072;28;20068;-79
2022/04/29 10:42:09;;;;;;;4.30;2.33;;;;;;;18.91;37.35;99809.53;5028886;28;20080;-79
2022/04/29 10:44:56;;;;;;;5.30;2.53;;;;;;;18.85;38.17;99821.41;5029654;28;20057;-79
2022/04/29 10:47:38;;;;;;;5.40;2.40;;;;;;;19.48;37.76;99822.34;5024048;28;20046;-79
2022/04/29 10:50:39;;;;;;;6.55;2.78;;;;;;;19.45;36.85;99793.31;5029237;28;20052;-79
2022/04/29 10:53:06;;;;;;;3.30;2.20;;;;;;;19.60;37.85;99793.81;5025687;28;20075;-79
2022/04/29 10:55:33;;;;;;;5.35;2.53;;;;;;;19.72;38.49;99810.44;5031291;28;20107;-78
2022/04/29 10:58:04;;;;;;;6.07;2.28;;;;;;;19.45;35.11;99785.91;5030353;28;20524;-79
2022/04/29 11:00:32;;;;;;;7.60;2.55;;;;;;;19.37;35.69;99799.16;5032354;28;20072;-78
2022/04/29 11:03:28;;;;;;;3.05;2.13;;;;;;;19.89;35.95;99780.34;5025587;28;20083;-79
2022/04/29 11:06:07;;;;;;;7.60;2.30;;;;;;;19.86;32.15;99774.44;5027789;28;20056;-79
2022/04/29 11:08:34;;;;;;;2.92;2.03;;;;;;;20.02;32.08;99768.28;5032630;28;20045;-79
2022/04/29 11:11:00;;;;;;;4.78;1.80;;;;;;;20.26;32.56;99773.94;5029043;28;20038;-79
2022/04/29 11:13:30;;;;;;;3.22;2.20;;;;;;;19.76;32.87;99766.69;5032184;28;20049;-78
2022/04/29 11:16:08;;;;;;;6.70;2.50;;;;;;;19.65;33.48;99771.06;5024343;28;20045;-79
2022/04/29 11:18:35;;;;;;;5.53;2.30;;;;;;;19.61;34.21;99767.91;5023862;28;20513;-79
2022/04/29 11:24:40;;;;;;;4.15;2.40;;;;;;;19.50;35.10;99767.84;5027256;28;20041;-78
2022/04/29 11:26:44;;;;;;;4.50;2.38;;;;;;;19.40;34.74;99782.13;5032226;28;20080;-79
2022/04/29 11:29:11;;;;;;;5.03;2.45;;;;;;;18.99;34.55;99786.34;5032476;28;20049;-79
2022/04/29 11:31:39;;;;;;;2.92;2.30;;;;;;;19.15;35.87;99790.44;5026605;28;20045;-78
2022/04/29 11:34:07;;;;;;;4.68;2.10;;;;;;;19.01;34.67;99768.50;5030855;28;20172;-79
2022/04/29 11:36:35;;;;;;;4.70;2.25;;;;;;;19.10;34.96;99777.34;5032102;28;20124;-79
2022/04/29 11:39:03;;;;;;;3.13;2.17;;;;;;;19.22;35.22;99763.66;5032159;28;20053;-79
2022/04/29 11:41:30;;;;;;;6.68;2.10;;;;;;;19.26;35.14;99754.72;5032602;28;20053;-79
2022/04/29 11:43:57;;;;;;;3.10;2.45;;;;;;;19.34;34.81;99750.81;5030777;28;20053;-79
2022/04/29 11:46:24;;;;;;;4.18;2.35;;;;;;;19.54;33.73;99771.81;5031982;28;20062;-79
2022/04/29 11:48:52;;;;;;;11.57;2.50;;;;;;;19.56;33.72;99753.13;5026908;28;20053;-79
2022/04/29 11:51:18;;;;;;;7.40;2.33;;;;;;;19.75;36.51;99748.44;5031357;28;20076;-79
2022/04/29 11:54:01;;;;;;;2.10;1.80;;;;;;;19.98;35.69;99765.16;5031207;28;20042;-79
2022/04/29 11:56:36;;;;;;;3.15;1.80;;;;;;;19.85;33.30;99768.09;5031551;28;20053;-79
2022/04/29 11:59:04;;;;;;;3.13;1.88;;;;;;;19.78;34.15;99751.63;5031941;28;20103;-79
2022/04/29 12:01:31;;;;;;;1.92;1.60;;;;;;;19.88;35.32;99741.97;5031393;28;20448;-79
2022/04/29 12:03:58;;;;;;;3.75;1.85;;;;;;;20.21;34.44;99752.53;5029483;28;20473;-79